Nearby METAR Reports

 

KDFW - Dallas/Ft Worth, Texas, USA
Distance from station: NE 8mi, 14km
Updated: 08/18/2018 4:53am
Mostly cloudy
Mostly cloudy
 Wind from SSW
Wind: SSW 9 mph , 15 km/h
Temperature: 82°F , 28°C
Heat Index: 85°F , 29°C
Dew Point: 68°F , 20°C
Humidity: 62%
Barometer: 29.97 inHg , 1014.9 hPa
Clouds: Mostly cloudy
Visibility: 10 miles , 16 km
Cloud details: Few Clouds 12000 ft
Mostly cloudy 25000 ft
2018/08/18 09:53 KDFW 180953Z 20008KT 10SM FEW120 BKN250 28/20 A2997 RMK AO2 SLP139 T02830200
KFTW - Fort Worth, Texas, USA
Distance from station: W 13mi, 21km
Updated: 08/18/2018 4:53am
Clear
Clear
 Wind from SSW
Wind: SSW 7 mph , 11 km/h
Temperature: 82°F , 28°C
Heat Index: 85°F , 29°C
Dew Point: 68°F , 20°C
Humidity: 62%
Barometer: 29.99 inHg , 1015.6 hPa
Clouds: Clear
Visibility: 10 miles , 16 km
2018/08/18 09:53 KFTW 180953Z 20006KT 10SM CLR 28/20 A2999 RMK AO2 SLP143 T02830200
 
KAFW - Ft Worth/Allianc, Texas, USA
Distance from station: NW 14mi, 22km
Updated: 08/18/2018 4:53am
Mostly cloudy
Mostly cloudy
 Wind from SSW
Wind: SSW 9 mph , 15 km/h
Temperature: 82°F , 28°C
Heat Index: 84°F , 29°C
Dew Point: 66°F , 19°C
Humidity: 58%
Barometer: 29.98 inHg , 1015.2 hPa
Clouds: Mostly cloudy
Visibility: 10 miles , 16 km
Cloud details: Few Clouds 10000 ft
Mostly cloudy 25000 ft
2018/08/18 09:53 KAFW 180953Z 21008KT 10SM FEW100 BKN250 28/19 A2998 RMK AO2 SLP134 T02780194
KDAL - Dallas/Love Fld, Texas, USA
Distance from station: E 17mi, 27km
Updated: 08/18/2018 4:53am
Partly cloudy
Partly cloudy
 Wind from SSW
Wind: SSW 8 mph , 13 km/h
Temperature: 86°F , 30°C
Heat Index: 91°F , 33°C
Dew Point: 70°F , 21°C
Humidity: 59%
Barometer: 29.99 inHg , 1015.6 hPa
Clouds: Partly cloudy
Visibility: 10 miles , 16 km
Cloud details: Few Clouds 10000 ft
Partly cloudy 25000 ft
2018/08/18 09:53 KDAL 180953Z 21007KT 10SM FEW100 SCT250 30/21 A2999 RMK AO2 SLP146 T03000211
 
KNFW - Fort Worth Nas, Texas, USA
Distance from station: WSW 17mi, 28km
Updated: 08/18/2018 4:52am
Clear
Clear
 Wind from SSW
Wind: SSW 8 mph , 13 km/h
Temperature: 82°F , 28°C
Heat Index: 84°F , 29°C
Dew Point: 64°F , 18°C
Humidity: 55%
Barometer: 29.99 inHg , 1015.6 hPa
Clouds: Clear
Visibility: 10 miles , 16 km
2018/08/18 09:52 KNFW 180952Z AUTO 20007KT 10SM CLR 28/18 A2999 RMK AO2 SLP140 T02780183 $
KRBD - Dallas/Redbird, Texas, USA
Distance from station: ESE 19mi, 30km
Updated: 08/18/2018 4:53am
Clear
Clear
 Wind from S
Wind: S 7 mph , 11 km/h
Temperature: 82°F , 28°C
Heat Index: 86°F , 30°C
Dew Point: 70°F , 21°C
Humidity: 66%
Barometer: 29.99 inHg , 1015.6 hPa
Clouds: Clear
Visibility: 10 miles , 16 km
2018/08/18 09:53 KRBD 180953Z AUTO 19006KT 10SM CLR 28/21 A2999 RMK AO2 SLP145 T02830206
 
KFWS - Fort Worth/Spinks, Texas, USA
Distance from station: SSW 21mi, 33km
Updated: 08/18/2018 5:35am
Clear
Clear
 Wind from S
Wind: S 7 mph , 11 km/h
Temperature: 81°F , 27°C
Heat Index: 84°F , 29°C
Dew Point: 68°F , 20°C
Humidity: 66%
Barometer: 30.02 inHg , 1016.6 hPa
Clouds: Clear
Visibility: 10 miles , 16 km
2018/08/18 10:35 KFWS 181035Z AUTO 18006KT 10SM CLR 27/20 A3002 RMK AO2 T02720202
KADS - Dallas/Addison, Texas, USA
Distance from station: ENE 21mi, 34km
Updated: 08/18/2018 5:35am
Mostly cloudy
Mostly cloudy
 Wind from SSW
Wind: SSW 7 mph , 11 km/h
Temperature: 82°F , 28°C
Heat Index: 86°F , 30°C
Dew Point: 70°F , 21°C
Humidity: 66%
Barometer: 30.02 inHg , 1016.6 hPa
Clouds: Mostly cloudy
Visibility: 10 miles , 16 km
Cloud details: Mostly cloudy 9500 ft
2018/08/18 10:35 KADS 181035Z AUTO 20006KT 10SM BKN095 28/21 A3002 RMK AO2 T02840208
 
KDTO - Denton, Texas, USA
Distance from station: N 26mi, 41km
Updated: 08/18/2018 4:53am
Clear
Clear
 Wind from S
Wind: S 6 mph , 9 km/h
Temperature: 79°F , 26°C
Dew Point: 68°F , 20°C
Humidity: 70%
Barometer: 29.99 inHg , 1015.6 hPa
Clouds: Clear
Visibility: 10 miles , 16 km
2018/08/18 09:53 KDTO 180953Z AUTO 17005KT 10SM CLR 26/20 A2999 RMK AO2 SLP144 T02610200
KLUD - Decatur, Texas, USA
Distance from station: NW 39mi, 62km
Updated: 08/18/2018 5:35am
Clear
Clear
 Wind from calm
Wind: Calm
Temperature: 82°F , 28°C
Heat Index: 84°F , 29°C
Dew Point: 64°F , 18°C
Humidity: 55%
Barometer: 30.00 inHg , 1015.9 hPa
Clouds: Clear
Visibility: 7 miles , 11 km
2018/08/18 10:35 KLUD 181035Z AUTO 00000KT 7SM CLR 28/18 A3000 RMK AO2 T02750183
 
KSPS - Wichita Falls/Sheppard AFB, Texas, USA
Distance from station: NW 111mi, 179km
Updated: 08/18/2018 5:52am
Clear
Clear
 Wind from NE
Wind: NE 6 mph , 9 km/h
Temperature: 73°F , 23°C
Dew Point: 72°F , 22°C
Humidity: 94%
Barometer: 30.01 inHg , 1016.3 hPa
Clouds: Clear
Visibility: 10 miles , 16 km
2018/08/18 10:52 KSPS 181052Z AUTO 04005KT 10SM CLR 23/22 A3001 RMK AO2 SLP146 T02330217